createdAt,value
2016-05-24T00:00:25.076Z,13.23
2016-05-24T00:01:20.328Z,13.28
2016-05-24T00:02:18.832Z,13.26
2016-05-24T00:03:18.881Z,13.26
2016-05-24T00:04:18.977Z,13.26
2016-05-24T00:05:18.901Z,13.3
2016-05-24T00:06:31.686Z,13.33
2016-05-24T00:07:20.344Z,13.27
2016-05-24T00:08:44.612Z,13.19
2016-05-24T00:09:18.975Z,13.26
2016-05-24T00:11:31.745Z,13.17
2016-05-24T00:12:19.123Z,13.26
2016-05-24T00:13:19.064Z,13.3
2016-05-24T00:14:19.175Z,13.13
2016-05-24T00:15:31.819Z,13.3
2016-05-24T00:16:31.853Z,13.23
2016-05-24T00:17:19.137Z,13.27
2016-05-24T00:18:19.171Z,13.17
2016-05-24T00:19:19.189Z,13.19
2016-05-24T00:20:20.614Z,13.2
2016-05-24T00:21:19.055Z,13.21
2016-05-24T00:22:19.260Z,13.11
2016-05-24T00:23:19.372Z,13.2
2016-05-24T00:24:19.265Z,13.06
2016-05-24T00:25:19.315Z,13.06
2016-05-24T00:26:20.770Z,13.05
2016-05-24T00:27:19.352Z,13.06
2016-05-24T00:28:28.635Z,13.12
2016-05-24T00:29:32.232Z,13.06
2016-05-24T00:30:45.062Z,13.02
2016-05-24T00:31:29.082Z,13.09
2016-05-24T00:32:29.115Z,13.02
2016-05-24T00:33:29.134Z,12.99
2016-05-24T00:34:29.151Z,13.01
2016-05-24T00:35:29.014Z,12.94
2016-05-24T00:36:29.031Z,13.01
2016-05-24T00:37:29.190Z,12.98
2016-05-24T00:38:48.443Z,12.98
2016-05-24T00:39:41.806Z,12.93
2016-05-24T00:40:29.324Z,13.01
2016-05-24T00:41:29.264Z,12.93
2016-05-24T00:42:42.033Z,12.91
2016-05-24T00:43:48.378Z,12.95
2016-05-24T00:44:29.366Z,12.99
2016-05-24T00:45:55.041Z,12.91
2016-05-24T00:46:29.372Z,12.91
2016-05-24T00:47:29.249Z,12.88
2016-05-24T00:48:29.424Z,12.91
2016-05-24T00:49:29.458Z,12.95
2016-05-24T00:50:29.461Z,12.99
2016-05-24T00:51:30.885Z,12.86
2016-05-24T00:52:29.497Z,12.9
2016-05-24T00:53:29.530Z,12.87
2016-05-24T00:54:29.533Z,12.91
2016-05-24T00:55:29.552Z,12.93
2016-05-24T00:56:29.414Z,12.88
2016-05-24T00:57:29.588Z,12.83
2016-05-24T00:58:29.638Z,12.83
2016-05-24T00:59:29.953Z,12.86
2016-05-24T01:00:29.763Z,12.83
2016-05-24T01:01:29.716Z,12.81
2016-05-24T01:02:29.435Z,12.81
2016-05-24T01:03:29.811Z,12.84
2016-05-24T01:04:31.294Z,12.84
2016-05-24T01:05:29.911Z,12.84
2016-05-24T01:06:30.003Z,12.83
2016-05-24T01:07:29.968Z,12.88
2016-05-24T01:08:29.982Z,12.86
2016-05-24T01:09:42.745Z,12.88
2016-05-24T01:10:42.786Z,12.86
2016-05-24T01:11:30.073Z,12.87
2016-05-24T01:12:30.096Z,12.83
2016-05-24T01:13:42.836Z,12.84
2016-05-24T01:14:33.062Z,12.87
2016-05-24T01:15:30.115Z,12.78
2016-05-24T01:16:30.196Z,12.72
2016-05-24T01:17:30.216Z,12.72
2016-05-24T01:18:30.251Z,12.75
2016-05-24T01:19:30.254Z,12.75
2016-05-24T01:20:33.133Z,12.75
2016-05-24T01:21:30.137Z,12.73
2016-05-24T01:22:30.311Z,12.76
2016-05-24T01:23:30.174Z,12.84
2016-05-24T01:24:30.364Z,12.7
2016-05-24T01:25:30.383Z,12.69
2016-05-24T01:26:30.385Z,12.73
2016-05-24T01:27:30.405Z,12.72
2016-05-24T01:28:30.469Z,12.72
2016-05-24T01:29:30.989Z,12.68
2016-05-24T01:30:30.475Z,12.62
2016-05-24T01:31:30.495Z,12.73
2016-05-24T01:32:30.498Z,12.58
2016-05-24T01:33:30.375Z,12.61
2016-05-24T01:34:30.549Z,12.57
2016-05-24T01:35:30.567Z,12.58
2016-05-24T01:36:30.585Z,12.65
2016-05-24T01:37:30.605Z,12.65
2016-05-24T01:38:30.467Z,12.58
2016-05-24T01:39:30.641Z,12.68
2016-05-24T01:40:32.128Z,12.66
2016-05-24T01:41:30.677Z,12.62
2016-05-24T01:42:30.696Z,12.63
2016-05-24T01:43:43.307Z,12.45
2016-05-24T01:44:31.030Z,12.5
2016-05-24T01:45:30.751Z,12.61
2016-05-24T01:46:30.785Z,12.57
2016-05-24T01:47:30.803Z,12.57
2016-05-24T01:48:30.821Z,12.61
2016-05-24T01:49:30.840Z,12.61
2016-05-24T01:50:50.062Z,12.44
2016-05-24T01:51:30.860Z,12.47
2016-05-24T01:52:30.910Z,12.43
2016-05-24T01:53:30.912Z,12.45
2016-05-24T01:54:31.040Z,12.47
2016-05-24T01:55:30.793Z,12.51
2016-05-24T01:56:31.062Z,12.45
2016-05-24T01:57:30.814Z,12.43
2016-05-24T01:58:43.754Z,12.44
2016-05-24T01:59:31.023Z,12.45
2016-05-24T02:00:31.057Z,12.43
2016-05-24T02:01:30.919Z,12.45
2016-05-24T02:02:34.125Z,12.36
2016-05-24T02:03:31.142Z,12.35
2016-05-24T02:04:37.255Z,12.33
2016-05-24T02:05:31.085Z,12.33
2016-05-24T02:06:31.183Z,12.28
2016-05-24T02:07:31.076Z,12.3
2016-05-24T02:08:31.203Z,12.37
2016-05-24T02:09:31.299Z,12.37
2016-05-24T02:10:31.255Z,12.33
2016-05-24T02:11:31.118Z,12.4
2016-05-24T02:12:31.277Z,12.33
2016-05-24T02:13:31.295Z,12.37
2016-05-24T02:14:31.157Z,12.35
2016-05-24T02:15:44.082Z,12.35
2016-05-24T02:16:31.365Z,12.35
2016-05-24T02:17:31.384Z,12.29
2016-05-24T02:18:31.230Z,12.39
2016-05-24T02:19:31.279Z,12.32
2016-05-24T02:20:31.174Z,12.32
2016-05-24T02:21:31.457Z,12.33
2016-05-24T02:22:31.162Z,12.32
2016-05-24T02:23:31.478Z,12.33
2016-05-24T02:24:31.387Z,12.25
2016-05-24T02:25:31.390Z,12.35
2016-05-24T02:26:44.236Z,12.3
2016-05-24T02:27:31.426Z,12.15
2016-05-24T02:28:31.585Z,12.18
2016-05-24T02:29:33.463Z,12.11
2016-05-24T02:30:31.637Z,12.14
2016-05-24T02:31:31.656Z,12.21
2016-05-24T02:32:31.658Z,12.26
2016-05-24T02:33:44.442Z,12.17
2016-05-24T02:34:31.569Z,12.25
2016-05-24T02:35:44.479Z,12.26
2016-05-24T02:36:33.075Z,12.26
2016-05-24T02:37:31.766Z,12.23
2016-05-24T02:38:31.783Z,12.12
2016-05-24T02:39:31.661Z,12.11
2016-05-24T02:40:31.821Z,12.18
2016-05-24T02:41:31.855Z,12.07
2016-05-24T02:42:44.608Z,12.18
2016-05-24T02:43:31.875Z,12.2
2016-05-24T02:44:51.049Z,12.17
2016-05-24T02:45:32.052Z,12.2
2016-05-24T02:46:32.118Z,12.21
2016-05-24T02:47:31.824Z,12.03
2016-05-24T02:48:33.999Z,12.14
2016-05-24T02:49:51.063Z,12.17
2016-05-24T02:50:32.019Z,12.18
2016-05-24T02:51:31.928Z,12.23
2016-05-24T02:52:31.962Z,12.14
2016-05-24T02:53:32.090Z,12.15
2016-05-24T02:54:44.812Z,12.17
2016-05-24T02:55:35.173Z,12.11
2016-05-24T02:56:57.832Z,12.17
2016-05-24T02:57:32.226Z,12.14
2016-05-24T02:59:03.448Z,12.2
2016-05-24T02:59:32.356Z,12.11
2016-05-24T03:00:32.046Z,12.07
2016-05-24T03:01:31.939Z,12.12
2016-05-24T03:02:32.255Z,12.08
2016-05-24T03:03:32.258Z,12.05
2016-05-24T03:04:32.276Z,12.15
2016-05-24T03:05:32.294Z,12.03
2016-05-24T03:06:32.344Z,12.12
2016-05-24T03:07:32.347Z,12.14
2016-05-24T03:08:32.349Z,12.12
2016-05-24T03:09:32.383Z,12.15
2016-05-24T03:10:32.245Z,12.18
2016-05-24T03:11:32.419Z,12.1
2016-05-24T03:12:32.282Z,12.15
2016-05-24T03:13:45.205Z,12.1
2016-05-24T03:14:32.474Z,12.12
2016-05-24T03:15:32.493Z,12.05
2016-05-24T03:16:32.511Z,12.11
2016-05-24T03:17:32.546Z,12.08
2016-05-24T03:18:32.548Z,12.05
2016-05-24T03:19:32.581Z,12.12
2016-05-24T03:20:32.412Z,12.07
2016-05-24T03:21:45.415Z,12.21
2016-05-24T03:22:32.637Z,12.08
2016-05-24T03:23:32.702Z,12.08
2016-05-24T03:24:34.017Z,12.07
2016-05-24T03:25:34.098Z,12.08
2016-05-24T03:26:32.554Z,12
2016-05-24T03:27:32.728Z,11.96
2016-05-24T03:28:34.200Z,11.93
2016-05-24T03:29:32.843Z,11.96
2016-05-24T03:30:32.783Z,12.02
2016-05-24T03:31:32.801Z,12
2016-05-24T03:32:34.242Z,12.02
2016-05-24T03:33:32.838Z,12.02
2016-05-24T03:34:32.872Z,11.95
2016-05-24T03:35:32.890Z,11.97
2016-05-24T03:36:33.064Z,11.93
2016-05-24T03:37:32.912Z,11.96
2016-05-24T03:38:34.336Z,11.86
2016-05-24T03:39:32.964Z,11.99
2016-05-24T03:40:32.982Z,11.96
2016-05-24T03:41:33.000Z,12.02
2016-05-24T03:42:45.752Z,11.96
2016-05-24T03:43:33.022Z,12.02
2016-05-24T03:44:58.899Z,12
2016-05-24T03:45:45.808Z,11.97
2016-05-24T03:47:04.216Z,12.08
2016-05-24T03:47:55.126Z,12.07
2016-05-24T03:48:35.940Z,11.97
2016-05-24T03:49:36.022Z,12
2016-05-24T03:50:35.962Z,12.07
2016-05-24T03:51:55.183Z,12.02
2016-05-24T03:52:55.248Z,12.08
2016-05-24T03:53:36.080Z,12.03
2016-05-24T03:54:35.926Z,12.05
2016-05-24T03:55:35.913Z,12.08
2016-05-24T03:57:51.340Z,12.05
2016-05-24T03:58:51.343Z,12.03
2016-05-24T03:59:51.408Z,12
2016-05-24T04:00:51.364Z,12.02
2016-05-24T04:02:04.179Z,12.11
2016-05-24T04:03:04.150Z,12.1
2016-05-24T04:03:51.575Z,12.18
2016-05-24T04:05:10.672Z,12.26
2016-05-24T04:05:51.503Z,12.15
2016-05-24T04:06:51.520Z,12.17
2016-05-24T04:07:51.539Z,12.2
2016-05-24T04:09:04.322Z,12.26
2016-05-24T04:10:10.778Z,12.21
2016-05-24T04:11:17.253Z,12.23
2016-05-24T04:12:10.800Z,12.23
2016-05-24T04:14:51.807Z,12.17
2016-05-24T04:15:51.513Z,12.2
2016-05-24T04:16:54.564Z,12.21
2016-05-24T04:17:51.707Z,12.26
2016-05-24T04:19:04.475Z,12.15
2016-05-24T04:19:51.743Z,12.21
2016-05-24T04:21:17.436Z,12.15
2016-05-24T04:21:54.655Z,12.18
2016-05-24T04:22:51.813Z,12.25
2016-05-24T04:24:04.426Z,12.1
2016-05-24T04:24:51.694Z,12.18
2016-05-24T04:26:17.371Z,12.12
2016-05-24T04:26:51.887Z,12.2
2016-05-24T04:29:06.908Z,12.2
2016-05-24T04:30:07.145Z,12.05
2016-05-24T04:31:26.306Z,12.11
2016-05-24T04:32:26.293Z,12.02
2016-05-24T04:33:33.265Z,12.07
2016-05-24T04:34:26.299Z,12.08
2016-05-24T04:35:38.426Z,12.1
2016-05-24T04:36:08.567Z,12.17
2016-05-24T04:37:07.023Z,12.17
2016-05-24T04:38:19.934Z,12.12
2016-05-24T04:39:08.606Z,12.11
2016-05-24T04:40:38.565Z,12.03
2016-05-24T04:41:22.583Z,12.05
2016-05-24T04:42:41.805Z,12.11
2016-05-24T04:43:25.494Z,12.08
2016-05-24T04:44:22.451Z,12.07
2016-05-24T04:45:22.750Z,12.11
2016-05-24T04:46:35.410Z,12.15
2016-05-24T04:47:22.693Z,12.14
2016-05-24T04:48:35.430Z,12.14
2016-05-24T04:49:35.463Z,12.11
2016-05-24T04:50:36.780Z,12.21
2016-05-24T04:51:22.799Z,12.17
2016-05-24T04:52:22.801Z,12.23
2016-05-24T04:53:35.553Z,12.23
2016-05-24T04:54:25.868Z,12.28
2016-05-24T04:55:22.840Z,12.28
2016-05-24T04:56:35.593Z,12.21
2016-05-24T04:57:22.893Z,12.21
2016-05-24T04:58:42.129Z,12.2
2016-05-24T04:59:42.147Z,12.23
2016-05-24T05:00:54.276Z,12.25
2016-05-24T05:01:54.262Z,12.25
2016-05-24T05:02:22.999Z,12.28
2016-05-24T05:03:23.049Z,12.26
2016-05-24T05:04:42.223Z,12.32
2016-05-24T05:05:23.039Z,12.23
2016-05-24T05:07:38.434Z,12.17
2016-05-24T05:08:38.328Z,12.17
2016-05-24T05:09:57.565Z,12.23
2016-05-24T05:10:54.114Z,12.14
2016-05-24T05:11:41.539Z,12.21
2016-05-24T05:12:41.573Z,12.17
2016-05-24T05:13:41.420Z,12.18
2016-05-24T05:14:41.610Z,12.21
2016-05-24T05:15:41.753Z,12.3
2016-05-24T05:16:41.630Z,12.29
2016-05-24T05:17:41.664Z,12.23
2016-05-24T05:18:41.355Z,12.32
2016-05-24T05:19:54.467Z,12.33
2016-05-24T05:20:41.719Z,12.37
2016-05-24T05:22:07.441Z,12.36
2016-05-24T05:22:41.757Z,12.36
2016-05-24T05:23:41.791Z,12.26
2016-05-24T05:24:41.792Z,12.33
2016-05-24T05:25:41.811Z,12.3
2016-05-24T05:26:41.846Z,12.35
2016-05-24T05:27:41.707Z,12.35
2016-05-24T05:29:01.225Z,12.4
2016-05-24T05:29:41.743Z,12.35
2016-05-24T05:31:13.215Z,12.51
2016-05-24T05:31:48.202Z,12.51
2016-05-24T05:32:41.986Z,12.47
2016-05-24T05:33:41.974Z,12.65
2016-05-24T05:34:45.023Z,12.7
2016-05-24T05:35:42.025Z,12.55
2016-05-24T05:36:42.029Z,12.73
2016-05-24T05:37:43.453Z,12.81
2016-05-24T05:38:42.049Z,12.76
2016-05-24T05:39:41.927Z,12.84
2016-05-24T05:40:42.101Z,12.91
2016-05-24T05:41:41.995Z,12.86
2016-05-24T05:42:42.231Z,12.9
2016-05-24T05:43:43.563Z,12.84
2016-05-24T05:44:42.050Z,12.84
2016-05-24T05:45:42.380Z,12.84
2016-05-24T05:46:42.321Z,12.9
2016-05-24T05:47:42.244Z,12.78
2016-05-24T05:48:42.294Z,12.83
2016-05-24T05:49:42.283Z,12.91
2016-05-24T05:50:42.316Z,12.86
2016-05-24T05:51:42.335Z,12.84
2016-05-24T05:52:42.352Z,12.91
2016-05-24T05:53:42.480Z,13.01
2016-05-24T05:54:42.404Z,12.91
2016-05-24T05:55:42.423Z,12.98
2016-05-24T05:56:42.410Z,12.99
2016-05-24T05:57:42.304Z,12.95
2016-05-24T05:58:42.478Z,12.87
2016-05-24T05:59:42.481Z,13.01
2016-05-24T06:00:42.374Z,13.02
2016-05-24T06:01:42.532Z,12.93
2016-05-24T06:02:48.629Z,13.01
2016-05-24T06:03:42.553Z,13.03
2016-05-24T06:04:42.588Z,13.02
2016-05-24T06:05:42.606Z,13.09
2016-05-24T06:06:42.484Z,13.12
2016-05-24T06:07:42.642Z,13.19
2016-05-24T06:08:42.676Z,13.12
2016-05-24T06:09:42.663Z,13.13
2016-05-24T06:10:42.744Z,13.09
2016-05-24T06:11:44.670Z,13.19
2016-05-24T06:12:46.594Z,13.26
2016-05-24T06:13:42.736Z,13.27
2016-05-24T06:14:43.131Z,13.13
2016-05-24T06:15:46.195Z,13.21
2016-05-24T06:16:42.666Z,13.17
2016-05-24T06:17:42.779Z,13.19
2016-05-24T06:18:42.875Z,13.02
2016-05-24T06:19:42.878Z,12.88
2016-05-24T06:20:42.928Z,12.9
2016-05-24T06:21:42.946Z,12.88
2016-05-24T06:22:42.933Z,12.8
2016-05-24T06:23:42.998Z,12.76
2016-05-24T06:24:42.829Z,12.84
2016-05-24T06:25:42.988Z,12.83
2016-05-24T06:26:43.038Z,12.8
2016-05-24T06:27:43.024Z,12.86
2016-05-24T06:29:02.246Z,12.9
2016-05-24T06:29:44.483Z,12.8
2016-05-24T06:30:43.173Z,12.83
2016-05-24T06:32:02.348Z,12.72
2016-05-24T06:32:43.132Z,12.75
2016-05-24T06:33:43.166Z,12.73
2016-05-24T06:34:43.293Z,12.72
2016-05-24T06:35:43.078Z,12.75
2016-05-24T06:36:43.065Z,12.75
2016-05-24T06:37:43.239Z,12.68
2016-05-24T06:38:43.273Z,12.7
2016-05-24T06:40:02.510Z,12.76
2016-05-24T06:41:02.498Z,12.72
2016-05-24T06:41:43.312Z,12.76
2016-05-24T06:43:14.627Z,12.69
2016-05-24T06:43:44.770Z,12.8
2016-05-24T06:44:43.367Z,12.72
2016-05-24T06:45:49.667Z,12.83
2016-05-24T06:46:43.420Z,12.86
2016-05-24T06:47:43.594Z,12.94
2016-05-24T06:48:56.191Z,12.9
2016-05-24T06:49:56.225Z,12.75
2016-05-24T06:50:44.884Z,12.7
2016-05-24T06:52:09.199Z,12.81
2016-05-24T06:52:53.186Z,12.83
2016-05-24T06:53:53.188Z,12.86
2016-05-24T06:54:53.238Z,12.8
2016-05-24T06:55:53.288Z,12.8
2016-05-24T06:56:54.696Z,12.9
2016-05-24T06:57:53.277Z,12.87
2016-05-24T06:58:53.311Z,12.94
2016-05-24T07:00:13.377Z,12.86
2016-05-24T07:01:09.974Z,12.91
2016-05-24T07:02:09.944Z,12.94
2016-05-24T07:03:22.731Z,12.94
2016-05-24T07:04:09.996Z,12.9
2016-05-24T07:05:10.109Z,12.83
2016-05-24T07:06:09.862Z,12.86
2016-05-24T07:07:09.911Z,12.83
2016-05-24T07:08:09.757Z,12.99
2016-05-24T07:09:13.135Z,13.02
2016-05-24T07:10:10.154Z,12.87
2016-05-24T07:11:22.721Z,12.91
2016-05-24T07:12:13.315Z,12.88
2016-05-24T07:13:35.852Z,12.93
2016-05-24T07:14:10.181Z,12.95
2016-05-24T07:15:41.497Z,12.94
2016-05-24T07:16:10.185Z,12.93
2016-05-24T07:18:10.284Z,13.01
2016-05-24T07:19:10.286Z,12.93
2016-05-24T07:20:11.571Z,12.83
2016-05-24T07:21:10.339Z,12.72
2016-05-24T07:22:10.358Z,12.84
2016-05-24T07:23:10.516Z,13.05
2016-05-24T07:24:10.488Z,12.98
2016-05-24T07:25:10.491Z,12.91
2016-05-24T07:26:10.494Z,13.01
2016-05-24T07:27:29.671Z,13.01
2016-05-24T07:28:10.468Z,12.9
2016-05-24T07:29:10.502Z,12.84
2016-05-24T07:30:10.535Z,12.83
2016-05-24T07:31:11.944Z,12.93
2016-05-24T07:32:23.309Z,12.73
2016-05-24T07:33:23.184Z,12.75
2016-05-24T07:34:10.593Z,12.78
2016-05-24T07:35:10.580Z,12.86
2016-05-24T07:36:10.645Z,12.86
2016-05-24T07:37:12.070Z,12.84
2016-05-24T07:38:23.229Z,12.84
2016-05-24T07:39:10.685Z,13.02
2016-05-24T07:40:10.718Z,13.02
2016-05-24T07:41:10.721Z,12.98
2016-05-24T07:42:10.630Z,12.93
2016-05-24T07:43:23.523Z,12.93
2016-05-24T07:44:12.198Z,12.9
2016-05-24T07:46:26.065Z,12.98
2016-05-24T07:47:26.114Z,12.98
2016-05-24T07:48:26.118Z,12.95
2016-05-24T07:49:45.339Z,12.95
2016-05-24T07:50:26.764Z,12.99
2016-05-24T07:51:51.704Z,13.09
2016-05-24T07:52:38.941Z,13.19
2016-05-24T07:53:26.209Z,13.13
2016-05-24T07:54:41.149Z,13.19
2016-05-24T07:55:41.214Z,13.31
2016-05-24T07:56:41.358Z,13.23
2016-05-24T07:57:54.111Z,13.23
2016-05-24T07:58:54.238Z,13.28
2016-05-24T07:59:42.804Z,13.27
2016-05-24T08:00:54.040Z,13.36
2016-05-24T08:01:44.480Z,13.23
2016-05-24T08:02:41.312Z,13.17
2016-05-24T08:03:41.502Z,13.2
2016-05-24T08:04:42.958Z,13.21
2016-05-24T08:05:54.273Z,13.26
2016-05-24T08:06:44.635Z,13.28
2016-05-24T08:08:12.856Z,13.26
2016-05-24T08:08:56.828Z,13.21
2016-05-24T08:10:16.034Z,13.19
2016-05-24T08:11:09.412Z,13.19
2016-05-24T08:12:23.945Z,13.13
2016-05-24T08:13:16.167Z,13.06
2016-05-24T08:15:28.237Z,13.08
2016-05-24T08:15:58.378Z,13.12
2016-05-24T08:16:56.787Z,13.03
2016-05-24T08:18:00.009Z,13.06
2016-05-24T08:18:56.839Z,13.06
2016-05-24T08:20:17.919Z,13.03
2016-05-24T08:21:27.535Z,13.19
2016-05-24T08:22:27.616Z,13.28
2016-05-24T08:23:34.056Z,13.37
2016-05-24T08:24:33.418Z,13.43
2016-05-24T08:25:37.124Z,13.26
2016-05-24T08:28:29.616Z,13.3
2016-05-24T08:28:58.350Z,13.26
2016-05-24T08:31:08.621Z,13.17
2016-05-24T08:32:08.108Z,13.19
2016-05-24T08:33:23.111Z,13.24
2016-05-24T08:34:23.363Z,13.3
2016-05-24T08:35:35.994Z,13.36
2016-05-24T08:36:32.404Z,13.46
2016-05-24T08:37:23.279Z,13.6
2016-05-24T08:38:48.830Z,13.65
2016-05-24T08:39:32.645Z,13.54
2016-05-24T08:40:58.539Z,13.57
2016-05-24T08:41:36.870Z,13.57
2016-05-24T08:42:36.732Z,13.64
2016-05-24T08:43:39.891Z,13.85
2016-05-24T08:44:40.034Z,13.87
2016-05-24T08:45:52.662Z,13.95
2016-05-24T08:46:40.164Z,14.01
2016-05-24T08:48:05.729Z,14
2016-05-24T08:48:46.263Z,13.94
2016-05-24T08:51:04.379Z,13.93
2016-05-24T08:52:04.397Z,14.01
2016-05-24T08:53:13.571Z,13.97
2016-05-24T08:54:04.495Z,13.98
2016-05-24T08:55:04.467Z,13.87
2016-05-24T08:56:04.563Z,13.71
2016-05-24T08:57:35.788Z,13.79
2016-05-24T08:58:06.006Z,13.7
2016-05-24T08:59:04.384Z,13.64
2016-05-24T09:00:21.777Z,13.62
2016-05-24T09:01:18.436Z,13.62
2016-05-24T09:02:18.517Z,13.61
2016-05-24T09:03:18.394Z,13.54
2016-05-24T09:04:37.775Z,13.47
2016-05-24T09:05:42.731Z,13.46
2016-05-24T09:06:40.827Z,13.39
2016-05-24T09:08:56.115Z,13.4
2016-05-24T09:09:37.070Z,13.5
2016-05-24T09:11:08.354Z,13.5
2016-05-24T09:11:52.326Z,13.47
2016-05-24T09:12:52.329Z,13.52
2016-05-24T09:13:52.237Z,13.67
2016-05-24T09:14:52.193Z,13.64
2016-05-24T09:15:57.118Z,13.47
2016-05-24T09:16:52.417Z,13.4
2016-05-24T09:17:52.451Z,13.36
2016-05-24T09:19:05.203Z,13.26
2016-05-24T09:20:05.206Z,13.31
2016-05-24T09:20:55.100Z,13.24
2016-05-24T09:22:18.181Z,13.36
2016-05-24T09:22:58.636Z,13.37
2016-05-24T09:23:52.405Z,13.39
2016-05-24T09:24:52.876Z,13.43
2016-05-24T09:25:52.317Z,13.4
2016-05-24T09:26:54.038Z,13.33
2016-05-24T09:27:52.883Z,13.39
2016-05-24T09:28:55.700Z,13.3
2016-05-24T09:29:54.202Z,13.47
2016-05-24T09:30:53.845Z,13.47
2016-05-24T09:31:58.989Z,13.54
2016-05-24T09:32:52.694Z,13.49
2016-05-24T09:33:52.822Z,13.47
2016-05-24T09:34:52.841Z,13.43
2016-05-24T09:35:54.218Z,13.52
2016-05-24T09:36:54.142Z,13.52
2016-05-24T09:37:58.974Z,13.49
2016-05-24T09:38:52.866Z,13.46
2016-05-24T09:40:05.666Z,13.57
2016-05-24T09:41:05.638Z,13.57
2016-05-24T09:41:53.015Z,13.49
2016-05-24T09:42:52.956Z,13.57
2016-05-24T09:43:53.146Z,13.55
2016-05-24T09:44:52.992Z,13.61
2016-05-24T09:46:24.307Z,13.71
2016-05-24T09:47:03.075Z,13.68
2016-05-24T09:49:35.192Z,13.75
2016-05-24T09:50:16.911Z,13.73
2016-05-24T09:51:41.292Z,13.75
2016-05-24T09:52:24.839Z,13.86
2016-05-24T09:53:18.451Z,13.76
2016-05-24T09:54:41.347Z,13.83
2016-05-24T09:55:28.081Z,13.86
2016-05-24T09:56:46.962Z,13.79
2016-05-24T09:57:44.574Z,13.85
2016-05-24T09:58:50.905Z,13.83
2016-05-24T09:59:44.830Z,13.91
2016-05-24T10:01:03.895Z,13.97
2016-05-24T10:01:54.022Z,14
2016-05-24T10:03:06.978Z,14.08
2016-05-24T10:03:47.809Z,13.95
2016-05-24T10:05:19.108Z,14
2016-05-24T10:05:49.251Z,14
2016-05-24T10:06:47.877Z,13.87
2016-05-24T10:08:06.996Z,13.97
2016-05-24T10:08:47.801Z,13.97
2016-05-24T10:10:13.670Z,14.01
2016-05-24T10:10:48.054Z,13.98
2016-05-24T10:13:03.284Z,13.93
2016-05-24T10:14:03.263Z,14.05
2016-05-24T10:15:03.367Z,14.2
2016-05-24T10:16:03.285Z,14.22
2016-05-24T10:17:03.339Z,14.26
2016-05-24T10:18:03.408Z,14.25
2016-05-24T10:19:04.772Z,14.16
2016-05-24T10:20:16.668Z,14.15
2016-05-24T10:21:06.424Z,14.12
2016-05-24T10:22:22.459Z,14.15
2016-05-24T10:23:19.244Z,14.13
2016-05-24T10:24:06.514Z,14.18
2016-05-24T10:25:32.193Z,14.26
2016-05-24T10:26:19.833Z,14.26
2016-05-24T10:27:06.619Z,14.23
2016-05-24T10:28:32.281Z,14.26
2016-05-24T10:29:06.625Z,14.28
2016-05-24T10:30:07.128Z,14.22
2016-05-24T10:31:06.677Z,14.13
2016-05-24T10:32:27.102Z,14.16
2016-05-24T10:33:06.543Z,14.18
2016-05-24T10:34:06.732Z,14.28
2016-05-24T10:35:20.923Z,14.4
2016-05-24T10:36:19.503Z,14.48
2016-05-24T10:37:27.756Z,14.66
2016-05-24T10:38:06.806Z,14.73
2016-05-24T10:39:06.824Z,14.94
2016-05-24T10:40:22.811Z,15
2016-05-24T10:41:06.939Z,15
2016-05-24T10:42:06.707Z,15.04
2016-05-24T10:43:19.647Z,15
2016-05-24T10:44:38.215Z,15.05
2016-05-24T10:45:36.405Z,15.15
2016-05-24T10:46:17.030Z,15.17
2016-05-24T10:47:17.205Z,15.22
2016-05-24T10:48:17.208Z,15.19
2016-05-24T10:49:18.711Z,15.32
2016-05-24T10:50:17.853Z,15.19
2016-05-24T10:51:17.278Z,15.22
2016-05-24T10:52:30.031Z,15.15
2016-05-24T10:53:17.283Z,15.14
2016-05-24T10:54:43.023Z,14.9
2016-05-24T10:55:36.573Z,14.66
2016-05-24T10:56:50.607Z,14.43
2016-05-24T10:57:17.529Z,14.4
2016-05-24T10:58:17.438Z,14.22
2016-05-24T10:59:17.471Z,14.05
2016-05-24T11:00:18.677Z,14.01
2016-05-24T11:01:30.086Z,13.94
2016-05-24T11:02:17.449Z,13.97
2016-05-24T11:03:30.279Z,13.98
2016-05-24T11:04:17.563Z,13.93
2016-05-24T11:05:43.271Z,14.05
2016-05-24T11:06:17.787Z,14.05
2016-05-24T11:07:48.934Z,14.25
2016-05-24T11:08:32.902Z,14.23
2016-05-24T11:09:32.779Z,14.12
2016-05-24T11:10:32.954Z,14.13
2016-05-24T11:11:45.709Z,14.25
2016-05-24T11:12:35.900Z,14.3
2016-05-24T11:13:58.761Z,14.34
2016-05-24T11:14:44.000Z,14.56
2016-05-24T11:16:08.986Z,14.82
2016-05-24T11:16:53.425Z,14.92
2016-05-24T11:17:53.133Z,14.93
2016-05-24T11:18:54.697Z,14.89
2016-05-24T11:19:53.544Z,14.86
2016-05-24T11:20:56.547Z,14.9
2016-05-24T11:22:12.689Z,14.87
2016-05-24T11:22:53.489Z,14.86
2016-05-24T11:25:08.822Z,14.79
2016-05-24T11:26:08.700Z,14.82
2016-05-24T11:28:11.534Z,14.92
2016-05-24T11:28:24.127Z,14.87
2016-05-24T11:29:24.115Z,14.96
2016-05-24T11:30:25.680Z,14.94
2016-05-24T11:31:36.920Z,14.87
2016-05-24T11:32:36.766Z,14.94
2016-05-24T11:33:43.410Z,14.86
2016-05-24T11:34:24.269Z,14.79
2016-05-24T11:35:24.241Z,14.92
2016-05-24T11:36:49.948Z,14.99
2016-05-24T11:37:52.889Z,14.97
2016-05-24T11:38:52.829Z,15
2016-05-24T11:39:59.270Z,15.1
2016-05-24T11:41:05.131Z,15.15
2016-05-24T11:41:53.056Z,15.19
2016-05-24T11:42:33.868Z,15.29
2016-05-24T11:43:36.952Z,15.55
2016-05-24T11:44:46.642Z,15.66
2016-05-24T11:45:47.019Z,16.21
2016-05-24T11:47:56.634Z,16.99
2016-05-24T11:48:40.325Z,17.34
2016-05-24T11:50:38.972Z,17.3
2016-05-24T11:51:48.598Z,17.38
2016-05-24T11:52:48.617Z,17.35
2016-05-24T11:53:20.336Z,17.39
2016-05-24T11:54:20.276Z,17.3
2016-05-24T11:55:33.138Z,16.98
2016-05-24T11:56:51.690Z,16.58
2016-05-24T11:57:39.724Z,16.64
2016-05-24T11:59:48.588Z,16.65
2016-05-24T12:00:35.573Z,16.69
2016-05-24T12:02:32.704Z,16.57
2016-05-24T12:02:45.409Z,16.57
2016-05-24T12:04:55.259Z,16.54
2016-05-24T12:05:07.946Z,16.55
2016-05-24T12:07:04.967Z,16.69
2016-05-24T12:07:17.498Z,16.76
2016-05-24T12:09:27.082Z,16.65
2016-05-24T12:10:27.116Z,16.69
2016-05-24T12:11:46.340Z,16.87
2016-05-24T12:12:27.356Z,16.83
2016-05-24T12:14:42.442Z,16.64
2016-05-24T12:15:42.334Z,16.58
2016-05-24T12:16:42.478Z,16.69
2016-05-24T12:18:01.715Z,16.86
2016-05-24T12:18:42.734Z,16.86
2016-05-24T12:21:11.488Z,16.91
2016-05-24T12:22:14.539Z,16.94
2016-05-24T12:22:58.416Z,16.84
2016-05-24T12:25:33.796Z,17.09
2016-05-24T12:26:33.847Z,17.05
2016-05-24T12:27:46.632Z,17.16
2016-05-24T12:28:34.070Z,17.07
2016-05-24T12:29:59.294Z,16.98
2016-05-24T12:30:49.985Z,16.84
2016-05-24T12:31:43.191Z,17.01
2016-05-24T12:33:02.474Z,17.17
2016-05-24T12:33:43.399Z,17.24
2016-05-24T12:35:10.496Z,17.22
2016-05-24T12:35:43.311Z,17.04
2016-05-24T12:37:14.751Z,16.84
2016-05-24T12:37:58.910Z,16.92
2016-05-24T12:38:58.850Z,16.82
2016-05-24T12:39:58.774Z,16.62
2016-05-24T12:40:58.621Z,16.43
2016-05-24T12:41:58.670Z,16.47
2016-05-24T12:43:06.579Z,16.41
2016-05-24T12:44:01.972Z,16.44
2016-05-24T12:45:18.272Z,16.4
2016-05-24T12:46:05.698Z,16.36
2016-05-24T12:48:01.514Z,16
2016-05-24T12:48:14.155Z,16.13
2016-05-24T12:49:15.564Z,16.24
2016-05-24T12:50:14.380Z,16.18
2016-05-24T12:51:14.429Z,16.39
2016-05-24T12:52:26.854Z,16.32
2016-05-24T12:53:27.309Z,16.17
2016-05-24T12:55:11.472Z,16.05
2016-05-24T12:55:37.003Z,16.05
2016-05-24T12:56:43.649Z,16.1
2016-05-24T12:57:27.445Z,16.29
2016-05-24T12:58:27.463Z,16.5
2016-05-24T12:59:27.497Z,16.65
2016-05-24T13:00:40.284Z,16.8
2016-05-24T13:01:27.393Z,16.8
2016-05-24T13:03:24.524Z,16.66
2016-05-24T13:03:37.368Z,16.73
2016-05-24T13:05:53.110Z,16.94
2016-05-24T13:06:53.160Z,16.92
2016-05-24T13:07:53.146Z,17.12
2016-05-24T13:09:05.806Z,17.13
2016-05-24T13:09:56.073Z,17.14
2016-05-24T13:11:12.421Z,17.13
2016-05-24T13:11:53.173Z,16.98
2016-05-24T13:13:18.707Z,16.84
2016-05-24T13:14:15.507Z,16.86
2016-05-24T13:15:22.025Z,16.84
2016-05-24T13:16:28.403Z,16.79
2016-05-24T13:17:34.295Z,16.66
2016-05-24T13:18:02.736Z,16.51
2016-05-24T13:20:16.679Z,16.43
2016-05-24T13:21:15.869Z,16.29
2016-05-24T13:22:18.778Z,16.29
2016-05-24T13:23:22.186Z,16.24
2016-05-24T13:24:29.908Z,15.83
2016-05-24T13:25:35.145Z,15.75
2016-05-24T13:26:41.823Z,15.9
2016-05-24T13:29:02.453Z,16.05
2016-05-24T13:30:02.706Z,16.08
2016-05-24T13:31:15.708Z,16.08
2016-05-24T13:32:15.618Z,15.94
2016-05-24T13:33:28.402Z,15.96
2016-05-24T13:34:30.232Z,15.92
2016-05-24T13:35:37.204Z,16.16